Terminal Aerodrome Forecast
Issued by NWS

Home | Current Version | Previous Version | Text Only | Print | Product List | Glossary On
Versions: 1 2 3 4 5 6 7 8 9 10 11 12 13 14 15 16 17 18 19 20 21
000
FTUS42 KGSP 281135
TAFHKY
TAF
KHKY 281135Z 2812/2912 21003KT P6SM OVC100
     FM281400 23004KT P6SM -RA OVC035
      TEMPO 2815/2818 6SM -RA BR SCT007 BKN012 OVC025
     FM281800 00000KT P6SM OVC008
     FM282100 00000KT P6SM OVC019
     FM282300 00000KT P6SM OVC028
     FM290400 00000KT P6SM -RA OVC028=

USA.gov is the U.S. government's official web portal to all federal, state and local government web resources and services.